Time;durP1;ratioP1;P1;durP2;ratioP2;P2;SDS_P1;SDS_P2;PMS_P1;PMS_P2;Temp;Humidity;BMP_temperature;BMP_pressure;BME280_temperature;BME280_humidity;BME280_pressure;Samples;Min_cycle;Max_cycle;Signal;HPM_P1;HPM_P2
2023/04/09 00:01:50;;;;;;;9.18;8.05;;;;;;;;;;5075694;28;20032;-56
2023/04/09 00:04:16;;;;;;;10.38;9.27;;;;;;;;;;5075717;28;20029;-55
2023/04/09 00:06:42;;;;;;;11.43;8.25;;;;;;;;;;5075937;28;20485;-56
2023/04/09 00:09:08;;;;;;;8.50;7.15;;;;;;;;;;5076089;28;20017;-57
2023/04/09 00:11:35;;;;;;;8.93;7.97;;;;;;;;;;5076047;28;20446;-55
2023/04/09 00:14:01;;;;;;;7.80;6.95;;;;;;;;;;5075055;28;20106;-54
2023/04/09 00:16:27;;;;;;;9.18;7.97;;;;;;;;;;5075309;28;20025;-55
2023/04/09 00:18:53;;;;;;;12.38;9.55;;;;;;;;;;5075379;28;20029;-57
2023/04/09 00:21:19;;;;;;;10.00;8.77;;;;;;;;;;5075324;28;20021;-56
2023/04/09 00:23:45;;;;;;;10.68;8.57;;;;;;;;;;5075370;28;20119;-56
2023/04/09 00:26:11;;;;;;;10.07;8.35;;;;;;;;;;5074703;28;20056;-55
2023/04/09 00:28:37;;;;;;;12.48;7.95;;;;;;;;;;5075347;28;20035;-56
2023/04/09 00:31:03;;;;;;;11.38;7.50;;;;;;;;;;5074950;28;20066;-56
2023/04/09 00:33:29;;;;;;;10.80;9.35;;;;;;;;;;5075259;28;20028;-55
2023/04/09 00:35:55;;;;;;;12.40;10.32;;;;;;;;;;5075593;28;20033;-56
2023/04/09 00:38:21;;;;;;;10.52;8.15;;;;;;;;;;5074842;28;20111;-55
2023/04/09 00:40:50;;;;;;;8.88;7.50;;;;;;;;;;5074418;28;20100;-56
2023/04/09 00:43:17;;;;;;;8.85;7.53;;;;;;;;;;5074785;28;20035;-56
2023/04/09 00:45:43;;;;;;;9.70;7.75;;;;;;;;;;5074578;28;20119;-56
2023/04/09 00:48:10;;;;;;;10.63;8.80;;;;;;;;;;5074841;28;20063;-57
2023/04/09 00:50:36;;;;;;;11.10;7.78;;;;;;;;;;5075086;28;20025;-56
2023/04/09 00:53:02;;;;;;;9.32;7.70;;;;;;;;;;5074411;28;20040;-56
2023/04/09 00:55:28;;;;;;;8.77;7.80;;;;;;;;;;5074706;28;20064;-55
2023/04/09 00:57:54;;;;;;;9.88;7.38;;;;;;;;;;5074015;28;20043;-53
2023/04/09 01:00:20;;;;;;;8.00;6.85;;;;;;;;;;5074670;28;20028;-57
2023/04/09 01:02:47;;;;;;;9.95;8.05;;;;;;;;;;5074967;28;20028;-56
2023/04/09 01:05:13;;;;;;;8.63;6.72;;;;;;;;;;5075025;28;20035;-53
2023/04/09 01:07:42;;;;;;;9.48;8.43;;;;;;;;;;5074438;28;20029;-52
2023/04/09 01:10:26;;;;;;;7.38;6.57;;;;;;;;;;5075208;28;20055;-55
2023/04/09 01:13:11;;;;;;;7.97;6.95;;;;;;;;;;5074525;28;20086;-56
2023/04/09 01:15:40;;;;;;;10.98;7.20;;;;;;;;;;5074591;28;20141;-55
2023/04/09 01:18:07;;;;;;;8.80;6.85;;;;;;;;;;5074146;28;20070;-55
2023/04/09 01:20:35;;;;;;;13.00;8.55;;;;;;;;;;5074139;28;20035;-56
2023/04/09 01:23:13;;;;;;;8.50;7.63;;;;;;;;;;5074691;28;20071;-55
2023/04/09 01:26:01;;;;;;;10.68;7.82;;;;;;;;;;5073828;28;20115;-57
2023/04/09 01:28:31;;;;;;;7.85;7.03;;;;;;;;;;5074440;28;20050;-56
2023/04/09 01:30:59;;;;;;;10.15;8.20;;;;;;;;;;5074138;28;20036;-55
2023/04/09 01:33:25;;;;;;;8.93;8.02;;;;;;;;;;5073895;28;20328;-55
2023/04/09 01:35:51;;;;;;;8.18;6.72;;;;;;;;;;5074383;28;20031;-53
2023/04/09 01:38:19;;;;;;;8.15;7.13;;;;;;;;;;5073866;28;20056;-53
2023/04/09 01:40:45;;;;;;;11.13;8.73;;;;;;;;;;5074416;28;20025;-55
2023/04/09 01:43:12;;;;;;;10.68;7.13;;;;;;;;;;5074200;28;20036;-56
2023/04/09 01:45:38;;;;;;;9.40;8.38;;;;;;;;;;5074431;28;20025;-56
2023/04/09 01:48:05;;;;;;;9.10;7.35;;;;;;;;;;5073888;28;20095;-56
2023/04/09 01:50:31;;;;;;;9.10;7.38;;;;;;;;;;5073833;28;20036;-57
2023/04/09 01:52:57;;;;;;;9.68;7.88;;;;;;;;;;5073932;28;20047;-57
2023/04/09 01:55:23;;;;;;;9.73;7.40;;;;;;;;;;5074403;28;20362;-56
2023/04/09 01:57:49;;;;;;;10.88;7.70;;;;;;;;;;5074288;28;20030;-56
2023/04/09 02:00:15;;;;;;;10.52;7.85;;;;;;;;;;5073686;28;20474;-53
2023/04/09 02:03:05;;;;;;;6.72;6.00;;;;;;;;;;5073398;28;20466;-53
2023/04/09 02:05:35;;;;;;;7.80;6.22;;;;;;;;;;5074294;28;20031;-56
2023/04/09 02:08:02;;;;;;;8.35;6.38;;;;;;;;;;5074451;28;20103;-56
2023/04/09 02:10:30;;;;;;;10.55;7.60;;;;;;;;;;5073657;28;20048;-55
2023/04/09 02:12:57;;;;;;;11.75;6.80;;;;;;;;;;5073424;28;20101;-53
2023/04/09 02:15:24;;;;;;;10.60;6.93;;;;;;;;;;5074210;28;20048;-56
2023/04/09 02:17:50;;;;;;;9.57;7.35;;;;;;;;;;5073580;28;20077;-53
2023/04/09 02:20:17;;;;;;;10.23;7.88;;;;;;;;;;5073499;28;20075;-56
2023/04/09 02:22:43;;;;;;;8.90;7.47;;;;;;;;;;5073416;28;20067;-56
2023/04/09 02:25:09;;;;;;;8.10;7.07;;;;;;;;;;5073564;28;20371;-55
2023/04/09 02:27:35;;;;;;;8.85;7.07;;;;;;;;;;5073388;28;20032;-55
2023/04/09 02:30:01;;;;;;;10.48;7.63;;;;;;;;;;5073471;28;20025;-56
2023/04/09 02:32:27;;;;;;;10.15;7.25;;;;;;;;;;5073350;28;20025;-55
2023/04/09 02:34:53;;;;;;;8.23;7.40;;;;;;;;;;5073331;28;20194;-54
2023/04/09 02:37:19;;;;;;;7.63;6.10;;;;;;;;;;5073450;28;20371;-55
2023/04/09 02:39:44;;;;;;;8.48;7.47;;;;;;;;;;5073183;28;20155;-53
2023/04/09 02:42:10;;;;;;;9.60;7.97;;;;;;;;;;5073600;28;20025;-55
2023/04/09 02:44:36;;;;;;;9.18;8.13;;;;;;;;;;5072961;28;20040;-54
2023/04/09 02:47:02;;;;;;;7.30;6.25;;;;;;;;;;5073571;28;20028;-56
2023/04/09 02:49:29;;;;;;;9.55;7.53;;;;;;;;;;5074370;28;20100;-56
2023/04/09 02:51:54;;;;;;;12.05;7.03;;;;;;;;;;5077087;28;20033;-54
2023/04/09 02:54:20;;;;;;;12.13;8.45;;;;;;;;;;5076949;28;20458;-57
2023/04/09 02:56:46;;;;;;;10.07;7.03;;;;;;;;;;5076922;28;20032;-53
2023/04/09 02:59:12;;;;;;;9.75;8.32;;;;;;;;;;5076897;28;20126;-56
2023/04/09 03:01:38;;;;;;;9.82;7.97;;;;;;;;;;5077138;28;20027;-56
2023/04/09 03:04:04;;;;;;;9.07;7.80;;;;;;;;;;5077525;28;20032;-56
2023/04/09 03:06:30;;;;;;;9.20;8.30;;;;;;;;;;5076577;28;20074;-53
2023/04/09 03:08:56;;;;;;;9.57;8.48;;;;;;;;;;5076402;28;20055;-56
2023/04/09 03:11:22;;;;;;;11.43;8.55;;;;;;;;;;5077209;28;20035;-56
2023/04/09 03:13:48;;;;;;;12.98;8.52;;;;;;;;;;5076449;28;20037;-55
2023/04/09 03:16:14;;;;;;;9.63;8.73;;;;;;;;;;5077229;28;20138;-55
2023/04/09 03:18:40;;;;;;;8.98;7.55;;;;;;;;;;5076989;28;20081;-56
2023/04/09 03:21:07;;;;;;;11.85;8.38;;;;;;;;;;5076477;28;20052;-54
2023/04/09 03:23:33;;;;;;;10.75;8.23;;;;;;;;;;5076465;28;20075;-54
2023/04/09 03:26:06;;;;;;;8.82;7.93;;;;;;;;;;5076997;28;20037;-55
2023/04/09 03:28:32;;;;;;;8.00;6.75;;;;;;;;;;5076315;28;20029;-52
2023/04/09 03:30:58;;;;;;;9.25;7.25;;;;;;;;;;5076614;28;20028;-56
2023/04/09 03:33:24;;;;;;;11.77;7.72;;;;;;;;;;5076378;28;20058;-54
2023/04/09 03:35:50;;;;;;;11.80;8.02;;;;;;;;;;5076305;28;20123;-57
2023/04/09 03:38:16;;;;;;;9.25;7.45;;;;;;;;;;5076230;28;20032;-53
2023/04/09 03:40:42;;;;;;;10.85;8.68;;;;;;;;;;5076716;28;20032;-56
2023/04/09 03:43:08;;;;;;;10.18;7.72;;;;;;;;;;5076207;28;20028;-55
2023/04/09 03:45:34;;;;;;;8.98;8.07;;;;;;;;;;5076493;28;20028;-56
2023/04/09 03:48:00;;;;;;;11.93;8.93;;;;;;;;;;5075803;28;20020;-56
2023/04/09 03:50:26;;;;;;;9.65;7.53;;;;;;;;;;5076011;28;20029;-56
2023/04/09 03:52:52;;;;;;;11.02;8.85;;;;;;;;;;5076138;28;20029;-54
2023/04/09 03:55:18;;;;;;;11.35;8.27;;;;;;;;;;5076492;28;20032;-53
2023/04/09 03:57:44;;;;;;;9.77;8.73;;;;;;;;;;5075956;28;20064;-55
2023/04/09 04:00:10;;;;;;;12.27;8.68;;;;;;;;;;5076365;28;20453;-57
2023/04/09 04:02:36;;;;;;;11.52;9.00;;;;;;;;;;5075830;28;20031;-53
2023/04/09 04:05:02;;;;;;;10.15;7.00;;;;;;;;;;5076275;28;20066;-54
2023/04/09 04:07:28;;;;;;;8.73;7.82;;;;;;;;;;5075669;28;20033;-57
2023/04/09 04:09:54;;;;;;;9.85;7.65;;;;;;;;;;5075753;28;20025;-56
2023/04/09 04:12:20;;;;;;;10.65;8.93;;;;;;;;;;5076132;28;20028;-51
2023/04/09 04:14:46;;;;;;;11.88;8.98;;;;;;;;;;5075838;28;20360;-54
2023/04/09 04:17:12;;;;;;;12.13;9.23;;;;;;;;;;5075563;28;20028;-54
2023/04/09 04:19:38;;;;;;;10.20;7.80;;;;;;;;;;5076021;28;20344;-53
2023/04/09 04:22:04;;;;;;;11.00;8.63;;;;;;;;;;5075477;28;20027;-54
2023/04/09 04:24:30;;;;;;;11.45;8.13;;;;;;;;;;5075419;28;20024;-55
2023/04/09 04:26:56;;;;;;;8.93;7.80;;;;;;;;;;5075417;28;20375;-55
2023/04/09 04:29:22;;;;;;;8.93;7.97;;;;;;;;;;5075291;28;20024;-52
2023/04/09 04:31:48;;;;;;;10.35;7.63;;;;;;;;;;5075262;28;20480;-56
2023/04/09 04:34:14;;;;;;;9.07;8.00;;;;;;;;;;5075148;28;20032;-54
2023/04/09 04:36:40;;;;;;;10.25;8.35;;;;;;;;;;5075149;28;20028;-56
2023/04/09 04:39:06;;;;;;;10.82;8.65;;;;;;;;;;5075053;28;20028;-54
2023/04/09 04:41:32;;;;;;;12.93;9.13;;;;;;;;;;5074936;28;20119;-53
2023/04/09 04:43:58;;;;;;;10.40;8.32;;;;;;;;;;5074993;28;20039;-52
2023/04/09 04:46:24;;;;;;;7.63;6.90;;;;;;;;;;5075240;28;20028;-54
2023/04/09 04:48:50;;;;;;;8.63;6.60;;;;;;;;;;5074872;28;20115;-56
2023/04/09 04:51:16;;;;;;;8.93;7.22;;;;;;;;;;5074818;28;20024;-53
2023/04/09 04:53:42;;;;;;;9.93;7.00;;;;;;;;;;5075056;28;20060;-54
2023/04/09 04:56:12;;;;;;;10.35;7.95;;;;;;;;;;5074866;28;20032;-54
2023/04/09 04:58:38;;;;;;;11.05;8.18;;;;;;;;;;5074738;28;20020;-52
2023/04/09 05:01:04;;;;;;;10.18;7.50;;;;;;;;;;5075131;28;20027;-54
2023/04/09 05:03:30;;;;;;;9.93;8.05;;;;;;;;;;5074584;28;20454;-55
2023/04/09 05:05:56;;;;;;;9.27;7.40;;;;;;;;;;5074899;28;20029;-55
2023/04/09 05:08:22;;;;;;;9.48;7.57;;;;;;;;;;5074453;28;20040;-54
2023/04/09 05:10:48;;;;;;;9.38;7.50;;;;;;;;;;5074696;28;20075;-54
2023/04/09 05:13:14;;;;;;;10.10;7.88;;;;;;;;;;5073838;28;20406;-53
2023/04/09 05:15:40;;;;;;;9.82;7.35;;;;;;;;;;5075530;28;20087;-52
2023/04/09 05:18:06;;;;;;;9.55;8.55;;;;;;;;;;5074377;28;20033;-55
2023/04/09 05:20:33;;;;;;;11.20;7.60;;;;;;;;;;5074840;28;20347;-51
2023/04/09 05:22:59;;;;;;;9.10;7.57;;;;;;;;;;5073941;28;20462;-55
2023/04/09 05:25:25;;;;;;;8.82;7.60;;;;;;;;;;5074815;28;20066;-54
2023/04/09 05:27:51;;;;;;;12.57;8.45;;;;;;;;;;5074147;28;20028;-55
2023/04/09 05:30:17;;;;;;;11.07;9.55;;;;;;;;;;5074908;28;20074;-55
2023/04/09 05:32:43;;;;;;;11.95;9.35;;;;;;;;;;5074735;28;20401;-53
2023/04/09 05:35:09;;;;;;;9.98;8.98;;;;;;;;;;5074038;28;20044;-56
2023/04/09 05:37:35;;;;;;;10.65;9.27;;;;;;;;;;5074785;28;20396;-56
2023/04/09 05:40:01;;;;;;;11.05;8.30;;;;;;;;;;5074305;28;20060;-55
2023/04/09 05:42:27;;;;;;;10.40;8.25;;;;;;;;;;5074445;28;20470;-53
2023/04/09 05:44:53;;;;;;;9.95;7.07;;;;;;;;;;5073993;28;20028;-55
2023/04/09 05:47:19;;;;;;;12.73;9.00;;;;;;;;;;5074253;28;20104;-56
2023/04/09 05:49:45;;;;;;;10.43;9.02;;;;;;;;;;5074418;28;20024;-54
2023/04/09 05:52:11;;;;;;;8.70;7.45;;;;;;;;;;5073870;28;20032;-52
2023/04/09 05:54:37;;;;;;;9.63;8.70;;;;;;;;;;5073789;28;20447;-53
2023/04/09 05:57:03;;;;;;;8.13;7.35;;;;;;;;;;5074389;28;20458;-55
2023/04/09 05:59:29;;;;;;;9.25;8.27;;;;;;;;;;5074255;28;20016;-56
2023/04/09 06:01:55;;;;;;;9.68;8.32;;;;;;;;;;5073730;28;20029;-53
2023/04/09 06:04:21;;;;;;;11.05;8.75;;;;;;;;;;5073751;28;20359;-55
2023/04/09 06:06:47;;;;;;;8.18;7.35;;;;;;;;;;5074059;28;20416;-54
2023/04/09 06:09:13;;;;;;;8.90;6.97;;;;;;;;;;5072318;28;20374;-56
2023/04/09 06:11:39;;;;;;;10.90;7.75;;;;;;;;;;5074236;28;20070;-54
2023/04/09 06:14:05;;;;;;;7.43;6.70;;;;;;;;;;5073326;28;20110;-56
2023/04/09 06:16:32;;;;;;;10.38;7.15;;;;;;;;;;5074199;28;20119;-55
2023/04/09 06:18:58;;;;;;;8.88;7.60;;;;;;;;;;5073678;28;20025;-54
2023/04/09 06:21:24;;;;;;;8.60;7.05;;;;;;;;;;5073221;28;20525;-56
2023/04/09 06:23:52;;;;;;;8.15;7.35;;;;;;;;;;5074571;28;20029;-56
2023/04/09 06:26:18;;;;;;;11.18;7.82;;;;;;;;;;5078203;28;20116;-54
2023/04/09 06:28:44;;;;;;;8.10;7.28;;;;;;;;;;5077620;28;20094;-53
2023/04/09 06:31:10;;;;;;;8.73;7.35;;;;;;;;;;5077593;28;20028;-55
2023/04/09 06:33:36;;;;;;;9.23;7.60;;;;;;;;;;5077428;28;20362;-56
2023/04/09 06:36:01;;;;;;;7.85;6.65;;;;;;;;;;5078232;28;20036;-54
2023/04/09 06:38:27;;;;;;;8.43;7.45;;;;;;;;;;5077311;28;20085;-56
2023/04/09 06:40:56;;;;;;;8.02;7.15;;;;;;;;;;5077278;28;20024;-57
2023/04/09 06:43:22;;;;;;;8.75;7.88;;;;;;;;;;5077232;28;20040;-53
2023/04/09 06:45:47;;;;;;;8.23;6.63;;;;;;;;;;5077309;28;20374;-56
2023/04/09 06:48:13;;;;;;;9.57;8.68;;;;;;;;;;5077286;28;20158;-56
2023/04/09 06:50:39;;;;;;;12.18;7.63;;;;;;;;;;5077184;28;20024;-55
2023/04/09 06:53:06;;;;;;;7.65;6.53;;;;;;;;;;5076654;28;20047;-56
2023/04/09 06:55:32;;;;;;;8.23;6.90;;;;;;;;;;5077364;28;20036;-55
2023/04/09 06:57:58;;;;;;;10.75;8.23;;;;;;;;;;5077078;28;20032;-56
2023/04/09 07:00:24;;;;;;;11.05;7.97;;;;;;;;;;5076996;28;20035;-56
2023/04/09 07:02:50;;;;;;;8.20;7.40;;;;;;;;;;5076960;28;20078;-56
2023/04/09 07:05:16;;;;;;;9.32;7.53;;;;;;;;;;5077442;28;20078;-54
2023/04/09 07:07:42;;;;;;;7.40;6.45;;;;;;;;;;5076893;28;20458;-56
2023/04/09 07:10:08;;;;;;;9.35;7.05;;;;;;;;;;5077064;28;20103;-55
2023/04/09 07:12:34;;;;;;;10.25;6.85;;;;;;;;;;5076962;28;20024;-56
2023/04/09 07:15:05;;;;;;;7.97;7.13;;;;;;;;;;5076374;28;20122;-55
2023/04/09 07:17:31;;;;;;;7.93;6.90;;;;;;;;;;5076674;28;20033;-56
2023/04/09 07:19:57;;;;;;;10.63;7.72;;;;;;;;;;5076279;28;20374;-56
2023/04/09 07:22:25;;;;;;;8.82;7.03;;;;;;;;;;5076429;28;20028;-55
2023/04/09 07:24:54;;;;;;;8.15;7.22;;;;;;;;;;5076316;28;20020;-54
2023/04/09 07:27:21;;;;;;;6.82;5.78;;;;;;;;;;5077238;28;20439;-54
2023/04/09 07:29:47;;;;;;;7.75;6.15;;;;;;;;;;5076872;28;20027;-55
2023/04/09 07:32:13;;;;;;;8.05;6.25;;;;;;;;;;5076318;28;20020;-56
2023/04/09 07:34:40;;;;;;;8.30;5.85;;;;;;;;;;5075697;28;20031;-56
2023/04/09 07:37:06;;;;;;;7.75;5.32;;;;;;;;;;5076592;28;20048;-56
2023/04/09 07:39:32;;;;;;;7.10;6.15;;;;;;;;;;5076144;28;20055;-56
2023/04/09 07:41:58;;;;;;;8.93;6.22;;;;;;;;;;5076177;28;20016;-54
2023/04/09 07:44:24;;;;;;;6.93;5.47;;;;;;;;;;5076081;28;20064;-56
2023/04/09 07:46:50;;;;;;;7.57;5.47;;;;;;;;;;5076709;28;20052;-56
2023/04/09 07:49:16;;;;;;;7.03;5.72;;;;;;;;;;5076171;28;20489;-56
2023/04/09 07:51:42;;;;;;;7.63;6.00;;;;;;;;;;5076295;28;20459;-55
2023/04/09 07:54:08;;;;;;;5.82;4.80;;;;;;;;;;5075674;28;20058;-55
2023/04/09 07:56:34;;;;;;;8.98;5.55;;;;;;;;;;5075968;28;20031;-55
2023/04/09 07:59:00;;;;;;;7.65;6.18;;;;;;;;;;5076422;28;20059;-56
2023/04/09 08:01:26;;;;;;;6.78;6.00;;;;;;;;;;5075907;28;20017;-55
2023/04/09 08:03:52;;;;;;;8.13;5.97;;;;;;;;;;5075806;28;20024;-56
2023/04/09 08:06:18;;;;;;;9.23;7.07;;;;;;;;;;5076345;28;20100;-55
2023/04/09 08:08:45;;;;;;;7.72;6.80;;;;;;;;;;5076255;28;20024;-52
2023/04/09 08:11:10;;;;;;;8.90;6.45;;;;;;;;;;5075667;28;20029;-56
2023/04/09 08:13:37;;;;;;;6.93;4.90;;;;;;;;;;5075383;28;20052;-53
2023/04/09 08:16:03;;;;;;;8.60;6.30;;;;;;;;;;5076863;28;20048;-55
2023/04/09 08:18:30;;;;;;;6.90;6.07;;;;;;;;;;5076320;28;20043;-56
2023/04/09 08:20:56;;;;;;;7.47;5.68;;;;;;;;;;5075454;28;20032;-55
2023/04/09 08:23:22;;;;;;;7.50;5.40;;;;;;;;;;5075750;28;20035;-54
2023/04/09 08:25:48;;;;;;;8.20;5.30;;;;;;;;;;5075463;28;20028;-56
2023/04/09 08:28:14;;;;;;;8.75;5.93;;;;;;;;;;5075876;28;20020;-56
2023/04/09 08:30:40;;;;;;;7.72;6.45;;;;;;;;;;5075277;28;20099;-55
2023/04/09 08:33:06;;;;;;;8.20;6.32;;;;;;;;;;5075098;28;20028;-53
2023/04/09 08:35:32;;;;;;;8.68;7.43;;;;;;;;;;5075092;28;20066;-56
2023/04/09 08:37:59;;;;;;;7.25;5.63;;;;;;;;;;5075037;28;20083;-53
2023/04/09 08:40:24;;;;;;;7.45;6.65;;;;;;;;;;5075099;28;20032;-56
2023/04/09 08:43:00;;;;;;;8.77;6.82;;;;;;;;;;5075055;28;20029;-56
2023/04/09 08:45:26;;;;;;;7.00;6.05;;;;;;;;;;5075753;28;20025;-53
2023/04/09 08:47:52;;;;;;;8.30;7.10;;;;;;;;;;5073985;28;20025;-55
2023/04/09 08:50:18;;;;;;;6.43;5.53;;;;;;;;;;5074794;28;20020;-55
2023/04/09 08:52:47;;;;;;;7.40;6.50;;;;;;;;;;5074837;28;20067;-55
2023/04/09 08:55:13;;;;;;;7.10;6.22;;;;;;;;;;5074688;28;20124;-54
2023/04/09 08:57:39;;;;;;;6.68;5.45;;;;;;;;;;5075048;28;20458;-55
2023/04/09 09:00:05;;;;;;;7.95;6.00;;;;;;;;;;5074655;28;20017;-57
2023/04/09 09:02:31;;;;;;;8.50;4.97;;;;;;;;;;5074630;28;20025;-56
2023/04/09 09:05:00;;;;;;;6.93;5.10;;;;;;;;;;5075229;28;20033;-54
2023/04/09 09:07:29;;;;;;;9.00;5.95;;;;;;;;;;5075138;28;20025;-56
2023/04/09 09:09:56;;;;;;;7.30;5.22;;;;;;;;;;5074456;28;20020;-53
2023/04/09 09:12:30;;;;;;;7.50;5.82;;;;;;;;;;5074582;28;20029;-56
2023/04/09 09:14:56;;;;;;;9.50;6.35;;;;;;;;;;5074577;28;20059;-55
2023/04/09 09:17:22;;;;;;;6.65;5.88;;;;;;;;;;5074352;28;20082;-56
2023/04/09 09:19:48;;;;;;;6.82;5.47;;;;;;;;;;5074608;28;20448;-53
2023/04/09 09:22:14;;;;;;;7.00;5.55;;;;;;;;;;5073945;28;20024;-54
2023/04/09 09:24:50;;;;;;;6.00;5.20;;;;;;;;;;5074363;28;20032;-54
2023/04/09 09:27:35;;;;;;;5.38;4.35;;;;;;;;;;5074661;28;20035;-57
2023/04/09 09:30:05;;;;;;;7.25;5.57;;;;;;;;;;5074120;28;20025;-57
2023/04/09 09:32:31;;;;;;;6.55;4.60;;;;;;;;;;5073978;28;20032;-56
2023/04/09 09:35:01;;;;;;;6.55;4.70;;;;;;;;;;5074261;28;20107;-57
2023/04/09 09:37:28;;;;;;;7.27;4.60;;;;;;;;;;5074661;28;20382;-53
2023/04/09 09:39:54;;;;;;;5.28;4.28;;;;;;;;;;5073929;28;20254;-55
2023/04/09 09:42:20;;;;;;;8.02;5.40;;;;;;;;;;5073925;28;20028;-53
2023/04/09 09:44:46;;;;;;;6.55;4.75;;;;;;;;;;5074498;28;20105;-52
2023/04/09 09:47:13;;;;;;;5.32;4.20;;;;;;;;;;5074315;28;20033;-56
2023/04/09 09:49:40;;;;;;;6.50;4.38;;;;;;;;;;5074315;28;20107;-53
2023/04/09 09:52:08;;;;;;;6.95;5.07;;;;;;;;;;5074661;28;20020;-53
2023/04/09 09:54:41;;;;;;;5.63;4.60;;;;;;;;;;5074047;28;20504;-56
2023/04/09 09:57:08;;;;;;;6.72;5.28;;;;;;;;;;5074187;28;20029;-55
2023/04/09 09:59:37;;;;;;;7.53;6.40;;;;;;;;;;5073954;28;20020;-57
2023/04/09 10:02:12;;;;;;;5.35;4.38;;;;;;;;;;5073969;28;20029;-57
2023/04/09 10:04:38;;;;;;;7.78;5.00;;;;;;;;;;5074078;28;20459;-57
2023/04/09 10:07:05;;;;;;;6.38;4.85;;;;;;;;;;5074217;28;20029;-56
2023/04/09 10:09:32;;;;;;;6.50;5.55;;;;;;;;;;5073309;28;20535;-52
2023/04/09 10:11:59;;;;;;;6.32;5.63;;;;;;;;;;5073662;28;20111;-56
2023/04/09 10:14:27;;;;;;;7.82;4.65;;;;;;;;;;5073286;28;20052;-56
2023/04/09 10:16:55;;;;;;;5.80;4.85;;;;;;;;;;5073785;28;20471;-53
2023/04/09 10:19:21;;;;;;;7.13;5.22;;;;;;;;;;5073519;28;20097;-55
2023/04/09 10:21:47;;;;;;;6.78;4.93;;;;;;;;;;5073514;28;20020;-55
2023/04/09 10:24:14;;;;;;;8.32;5.88;;;;;;;;;;5073102;28;20455;-54
2023/04/09 10:26:41;;;;;;;7.47;5.60;;;;;;;;;;5073339;28;20029;-56
2023/04/09 10:29:13;;;;;;;7.03;5.13;;;;;;;;;;5073858;28;20027;-52
2023/04/09 10:31:52;;;;;;;6.13;4.82;;;;;;;;;;5073891;28;20098;-56
2023/04/09 10:34:21;;;;;;;6.15;4.50;;;;;;;;;;5073383;28;20040;-57
2023/04/09 10:36:52;;;;;;;5.60;3.97;;;;;;;;;;5074076;28;20028;-57
2023/04/09 10:39:18;;;;;;;5.22;3.83;;;;;;;;;;5073199;28;20029;-54
2023/04/09 10:41:46;;;;;;;6.43;4.57;;;;;;;;;;5073379;28;20021;-57
2023/04/09 10:44:21;;;;;;;5.60;4.25;;;;;;;;;;5073047;28;20393;-56
2023/04/09 10:46:47;;;;;;;4.65;3.35;;;;;;;;;;5073807;28;20025;-56
2023/04/09 10:49:17;;;;;;;4.47;3.22;;;;;;;;;;5073221;28;20028;-56
2023/04/09 10:52:03;;;;;;;5.75;4.25;;;;;;;;;;5073935;28;20028;-57
2023/04/09 10:54:32;;;;;;;5.32;4.53;;;;;;;;;;5073335;28;20029;-56
2023/04/09 10:57:25;;;;;;;6.45;4.15;;;;;;;;;;5074014;28;20079;-55
2023/04/09 10:59:54;;;;;;;5.22;4.43;;;;;;;;;;5071278;28;20154;-57
2023/04/09 11:02:38;;;;;;;4.72;4.18;;;;;;;;;;5073099;28;20024;-54
2023/04/09 11:05:10;;;;;;;6.90;4.65;;;;;;;;;;5072564;28;20489;-56
2023/04/09 11:07:40;;;;;;;6.00;5.07;;;;;;;;;;5073100;28;20056;-56
2023/04/09 11:10:06;;;;;;;4.85;3.58;;;;;;;;;;5073779;28;20017;-56
2023/04/09 11:12:33;;;;;;;5.82;3.97;;;;;;;;;;5076615;28;20030;-55
2023/04/09 11:14:59;;;;;;;6.22;4.57;;;;;;;;;;5076737;28;20075;-58
2023/04/09 11:17:25;;;;;;;5.72;4.50;;;;;;;;;;5076619;28;20383;-57
2023/04/09 11:19:51;;;;;;;5.50;4.68;;;;;;;;;;5076637;28;20048;-55
2023/04/09 11:22:17;;;;;;;5.85;4.93;;;;;;;;;;5076534;28;20095;-57
2023/04/09 11:24:43;;;;;;;4.97;4.43;;;;;;;;;;5076444;28;20378;-58
2023/04/09 11:27:09;;;;;;;6.07;4.97;;;;;;;;;;5076955;28;20020;-56
2023/04/09 11:29:36;;;;;;;5.45;4.43;;;;;;;;;;5076375;28;20039;-57
2023/04/09 11:32:04;;;;;;;5.10;4.18;;;;;;;;;;5076640;28;20082;-57
2023/04/09 11:34:30;;;;;;;5.15;4.25;;;;;;;;;;5076248;28;20111;-56
2023/04/09 11:36:57;;;;;;;8.20;5.90;;;;;;;;;;5076674;28;20032;-55
2023/04/09 11:39:23;;;;;;;8.18;4.88;;;;;;;;;;5076643;28;20028;-57
2023/04/09 11:41:49;;;;;;;5.72;4.45;;;;;;;;;;5076271;28;20371;-55
2023/04/09 11:44:15;;;;;;;5.25;3.95;;;;;;;;;;5076974;28;20028;-57
2023/04/09 11:46:41;;;;;;;5.50;4.18;;;;;;;;;;5076244;28;20585;-56
2023/04/09 11:49:08;;;;;;;6.22;4.45;;;;;;;;;;5076663;28;20021;-55
2023/04/09 11:51:34;;;;;;;5.15;3.70;;;;;;;;;;5076896;28;20060;-57
2023/04/09 11:54:07;;;;;;;4.80;4.07;;;;;;;;;;5075939;28;20055;-54
2023/04/09 11:56:35;;;;;;;4.43;3.58;;;;;;;;;;5075976;28;20025;-56
2023/04/09 11:59:01;;;;;;;4.78;4.05;;;;;;;;;;5076702;28;20036;-57
2023/04/09 12:01:31;;;;;;;5.53;3.55;;;;;;;;;;5075965;28;20032;-57
2023/04/09 12:03:57;;;;;;;5.65;3.97;;;;;;;;;;5076629;28;20340;-56
2023/04/09 12:06:24;;;;;;;5.28;3.40;;;;;;;;;;5076640;28;20028;-57
2023/04/09 12:08:53;;;;;;;7.03;3.90;;;;;;;;;;5076228;28;20116;-57
2023/04/09 12:11:19;;;;;;;6.43;4.85;;;;;;;;;;5075343;28;20360;-57
2023/04/09 12:13:46;;;;;;;6.43;4.85;;;;;;;;;;5076014;28;20028;-57
2023/04/09 12:16:13;;;;;;;5.75;4.13;;;;;;;;;;5076350;28;20028;-56
2023/04/09 12:18:39;;;;;;;5.70;4.70;;;;;;;;;;5075036;28;20439;-57
2023/04/09 12:21:05;;;;;;;6.07;5.00;;;;;;;;;;5075233;28;20358;-56
2023/04/09 12:23:32;;;;;;;6.60;5.07;;;;;;;;;;5074822;28;20036;-57
2023/04/09 12:26:01;;;;;;;5.80;4.60;;;;;;;;;;5076238;28;20059;-55
2023/04/09 12:28:27;;;;;;;5.93;4.43;;;;;;;;;;5075354;28;20051;-58
2023/04/09 12:30:54;;;;;;;5.80;4.25;;;;;;;;;;5075584;28;20031;-57
2023/04/09 12:33:20;;;;;;;6.40;4.47;;;;;;;;;;5075418;28;20525;-57
2023/04/09 12:35:46;;;;;;;5.70;4.13;;;;;;;;;;5075763;28;20031;-56
2023/04/09 12:38:12;;;;;;;5.97;4.65;;;;;;;;;;5075021;28;20021;-58
2023/04/09 12:40:39;;;;;;;7.30;4.30;;;;;;;;;;5075049;28;20025;-57
2023/04/09 12:43:05;;;;;;;6.82;4.72;;;;;;;;;;5074927;28;20032;-58
2023/04/09 12:45:31;;;;;;;4.93;3.95;;;;;;;;;;5074881;28;20031;-58
2023/04/09 12:47:57;;;;;;;5.75;4.13;;;;;;;;;;5075019;28;20033;-57
2023/04/09 12:50:23;;;;;;;4.35;3.17;;;;;;;;;;5075323;28;20349;-57
2023/04/09 12:52:49;;;;;;;5.05;4.13;;;;;;;;;;5074613;28;20111;-57
2023/04/09 12:55:15;;;;;;;6.78;3.83;;;;;;;;;;5075069;28;20354;-56
2023/04/09 12:57:43;;;;;;;5.30;4.45;;;;;;;;;;5074656;28;20068;-57
2023/04/09 13:00:09;;;;;;;4.40;3.88;;;;;;;;;;5074650;28;20028;-57
2023/04/09 13:02:35;;;;;;;5.05;3.75;;;;;;;;;;5074617;28;20029;-55
2023/04/09 13:05:01;;;;;;;4.65;3.90;;;;;;;;;;5074238;28;20044;-57
2023/04/09 13:07:28;;;;;;;4.40;3.50;;;;;;;;;;5074590;28;20036;-56
2023/04/09 13:09:54;;;;;;;4.85;3.33;;;;;;;;;;5074747;28;20405;-57
2023/04/09 13:12:20;;;;;;;4.97;4.00;;;;;;;;;;5074958;28;20116;-58
2023/04/09 13:14:47;;;;;;;5.20;3.58;;;;;;;;;;5075156;28;20052;-56
2023/04/09 13:17:13;;;;;;;5.22;3.97;;;;;;;;;;5074904;28;20035;-57
2023/04/09 13:19:40;;;;;;;6.35;4.07;;;;;;;;;;5074887;28;20417;-57
2023/04/09 13:22:07;;;;;;;6.57;3.42;;;;;;;;;;5074849;28;20032;-54
2023/04/09 13:24:34;;;;;;;5.28;3.88;;;;;;;;;;5074198;28;20081;-56
2023/04/09 13:27:00;;;;;;;5.10;4.43;;;;;;;;;;5074552;28;20024;-56
2023/04/09 13:29:28;;;;;;;6.00;4.60;;;;;;;;;;5073885;28;20027;-55
2023/04/09 13:31:54;;;;;;;5.47;4.03;;;;;;;;;;5073941;28;20436;-58
2023/04/09 13:34:20;;;;;;;6.03;4.13;;;;;;;;;;5073319;28;20466;-57
2023/04/09 13:36:46;;;;;;;8.30;4.07;;;;;;;;;;5074427;28;20035;-57
2023/04/09 13:39:12;;;;;;;6.30;4.05;;;;;;;;;;5073305;28;20035;-56
2023/04/09 13:41:39;;;;;;;7.28;3.67;;;;;;;;;;5073952;28;20060;-58
2023/04/09 13:44:05;;;;;;;5.40;3.83;;;;;;;;;;5074825;28;20064;-56
2023/04/09 13:46:32;;;;;;;4.70;3.72;;;;;;;;;;5074933;28;20108;-57
2023/04/09 13:48:58;;;;;;;5.32;4.05;;;;;;;;;;5073642;28;20025;-57
2023/04/09 13:51:25;;;;;;;3.95;3.30;;;;;;;;;;5073630;28;20082;-57
2023/04/09 13:53:51;;;;;;;4.47;3.30;;;;;;;;;;5074091;28;20071;-53
2023/04/09 13:56:17;;;;;;;7.47;3.78;;;;;;;;;;5073904;28;20035;-56
2023/04/09 13:58:43;;;;;;;5.80;3.85;;;;;;;;;;5073511;28;20032;-54
2023/04/09 14:01:09;;;;;;;4.80;3.75;;;;;;;;;;5074337;28;20028;-57
2023/04/09 14:03:38;;;;;;;4.25;3.35;;;;;;;;;;5073764;28;20032;-56
2023/04/09 14:06:04;;;;;;;6.03;3.70;;;;;;;;;;5074295;28;20025;-57
2023/04/09 14:08:30;;;;;;;5.68;3.92;;;;;;;;;;5074054;28;20031;-56
2023/04/09 14:10:56;;;;;;;5.70;4.07;;;;;;;;;;5074306;28;20025;-57
2023/04/09 14:13:22;;;;;;;4.38;3.63;;;;;;;;;;5073633;28;20442;-56
2023/04/09 14:15:49;;;;;;;4.53;3.42;;;;;;;;;;5074151;28;20140;-57
2023/04/09 14:18:15;;;;;;;4.30;3.65;;;;;;;;;;5073826;28;20020;-57
2023/04/09 14:20:41;;;;;;;3.92;3.40;;;;;;;;;;5073979;28;20515;-57
2023/04/09 14:23:07;;;;;;;7.53;4.43;;;;;;;;;;5073547;28;20017;-55
2023/04/09 14:25:33;;;;;;;4.47;3.10;;;;;;;;;;5074205;28;20024;-57
2023/04/09 14:27:59;;;;;;;5.28;3.75;;;;;;;;;;5073192;28;20098;-57
2023/04/09 14:30:25;;;;;;;4.32;3.40;;;;;;;;;;5074449;28;20369;-57
2023/04/09 14:32:51;;;;;;;5.05;3.75;;;;;;;;;;5073887;28;20259;-57
2023/04/09 14:35:17;;;;;;;4.68;3.22;;;;;;;;;;5073978;28;20029;-57
2023/04/09 14:37:43;;;;;;;4.90;3.50;;;;;;;;;;5074285;28;20499;-53
2023/04/09 14:40:09;;;;;;;5.07;3.67;;;;;;;;;;5073459;28;20024;-54